createdAt,value
2019-04-04T00:00:01.462Z,14.13
2019-04-04T00:02:29.582Z,13.23
2019-04-04T00:04:57.858Z,14.17
2019-04-04T00:07:27.070Z,14.17
2019-04-04T00:09:55.837Z,14.90
2019-04-04T00:12:23.860Z,13.93
2019-04-04T00:14:51.871Z,14.43
2019-04-04T00:17:22.884Z,14.43
2019-04-04T00:19:49.798Z,14.97
2019-04-04T00:22:17.896Z,14.23
2019-04-04T00:24:45.926Z,14.67
2019-04-04T00:27:13.938Z,14.07
2019-04-04T00:29:41.965Z,17.40
2019-04-04T00:32:10.003Z,15.17
2019-04-04T00:34:38.014Z,15.63
2019-04-04T00:37:06.122Z,15.07
2019-04-04T00:39:34.172Z,15.57
2019-04-04T00:42:02.202Z,15.00
2019-04-04T00:44:30.305Z,15.27
2019-04-04T00:46:58.342Z,15.30
2019-04-04T00:49:26.498Z,15.93
2019-04-04T00:51:54.525Z,16.77
2019-04-04T00:54:22.879Z,16.27
2019-04-04T00:56:50.908Z,17.07
2019-04-04T00:59:18.918Z,16.97
2019-04-04T01:01:47.830Z,17.43
2019-04-04T01:04:15.846Z,17.13
2019-04-04T01:06:43.865Z,17.47
2019-04-04T01:09:13.452Z,17.03
2019-04-04T01:11:41.650Z,15.87
2019-04-04T01:14:09.678Z,17.13
2019-04-04T01:16:37.707Z,16.90
2019-04-04T01:19:05.723Z,17.60
2019-04-04T01:21:33.738Z,17.80
2019-04-04T01:24:01.871Z,17.03
2019-04-04T01:26:29.890Z,17.60
2019-04-04T01:28:57.908Z,18.17
2019-04-04T01:31:25.959Z,17.50
2019-04-04T01:33:53.982Z,16.80
2019-04-04T01:36:24.902Z,16.47
2019-04-04T01:38:51.879Z,16.67
2019-04-04T01:41:19.951Z,17.03
2019-04-04T01:43:47.975Z,18.70
2019-04-04T01:46:16.359Z,16.87
2019-04-04T01:48:44.375Z,17.50
2019-04-04T01:51:12.474Z,18.30
2019-04-04T01:53:40.511Z,16.80
2019-04-04T01:56:08.619Z,16.97
2019-04-04T01:58:36.634Z,16.27
2019-04-04T02:01:04.674Z,15.53
2019-04-04T02:03:32.702Z,16.53
2019-04-04T02:06:00.711Z,16.03
2019-04-04T02:08:31.295Z,17.27
2019-04-04T02:10:58.486Z,16.27
2019-04-04T02:13:26.579Z,15.30
2019-04-04T02:15:54.618Z,14.93
2019-04-04T02:18:23.575Z,14.70
2019-04-04T02:20:52.324Z,14.60
2019-04-04T02:23:20.356Z,15.53
2019-04-04T02:25:48.454Z,15.23
2019-04-04T02:28:16.466Z,14.43
2019-04-04T02:30:48.038Z,15.30
2019-04-04T02:33:14.259Z,14.20
2019-04-04T02:35:43.689Z,14.57
2019-04-04T02:38:11.994Z,13.13
2019-04-04T02:40:42.017Z,14.20
2019-04-04T02:43:09.828Z,14.50
2019-04-04T02:45:38.825Z,14.13
2019-04-04T02:48:07.265Z,13.70
2019-04-04T02:50:35.905Z,13.07
2019-04-04T02:53:04.086Z,13.07
2019-04-04T02:55:32.096Z,13.20
2019-04-04T02:58:00.111Z,12.90
2019-04-04T03:00:28.179Z,12.93
2019-04-04T03:02:56.323Z,12.40
2019-04-04T03:05:24.414Z,12.27
2019-04-04T03:07:52.447Z,12.23
2019-04-04T03:10:20.539Z,11.63
2019-04-04T03:12:48.574Z,12.20
2019-04-04T03:15:16.670Z,12.80
2019-04-04T03:17:44.701Z,12.67
2019-04-04T03:20:16.345Z,12.80
2019-04-04T03:22:42.546Z,13.43
2019-04-04T03:25:14.459Z,13.03
2019-04-04T03:27:40.445Z,11.73
2019-04-04T03:30:13.203Z,12.10
2019-04-04T03:32:38.222Z,12.37
2019-04-04T03:35:06.708Z,11.90
2019-04-04T03:37:34.735Z,12.30
2019-04-04T03:40:03.202Z,11.53
2019-04-04T03:42:31.218Z,11.10
2019-04-04T03:44:59.447Z,11.30
2019-04-04T03:47:27.739Z,11.17
2019-04-04T03:49:57.530Z,10.87
2019-04-04T03:52:25.507Z,11.03
2019-04-04T03:54:56.218Z,11.57
2019-04-04T03:57:23.266Z,12.00
2019-04-04T03:59:51.385Z,11.27
2019-04-04T04:02:19.396Z,11.57
2019-04-04T04:04:47.411Z,10.77
2019-04-04T04:07:15.545Z,12.07
2019-04-04T04:09:43.544Z,10.80
2019-04-04T04:12:11.561Z,11.43
2019-04-04T04:14:39.610Z,11.23
2019-04-04T04:17:09.144Z,10.77
2019-04-04T04:19:37.369Z,11.30
2019-04-04T04:22:05.477Z,11.17
2019-04-04T04:24:33.495Z,11.37
2019-04-04T04:27:01.534Z,11.13
2019-04-04T04:29:30.648Z,11.80
2019-04-04T04:31:58.939Z,11.00
2019-04-04T04:34:26.951Z,10.90
2019-04-04T04:36:54.988Z,11.50
2019-04-04T04:39:23.078Z,10.90
2019-04-04T04:41:54.185Z,10.67
2019-04-04T04:44:20.851Z,11.50
2019-04-04T04:46:50.422Z,10.50
2019-04-04T04:49:18.606Z,10.87
2019-04-04T04:51:46.643Z,10.60
2019-04-04T04:54:14.664Z,10.17
2019-04-04T04:56:42.688Z,10.57
2019-04-04T04:59:12.878Z,11.33
2019-04-04T05:01:40.742Z,9.63
2019-04-04T05:04:09.012Z,10.17
2019-04-04T05:06:37.042Z,10.30
2019-04-04T05:09:05.502Z,10.23
2019-04-04T05:11:33.513Z,10.13
2019-04-04T05:14:01.543Z,11.03
2019-04-04T05:16:29.634Z,10.70
2019-04-04T05:18:57.652Z,9.43
2019-04-04T05:21:28.651Z,9.77
2019-04-04T05:23:55.426Z,10.53
2019-04-04T05:26:23.500Z,9.57
2019-04-04T05:28:51.527Z,10.00
2019-04-04T05:31:19.541Z,11.07
2019-04-04T05:33:47.564Z,10.70
2019-04-04T05:36:15.597Z,10.90
2019-04-04T05:38:46.964Z,10.93
2019-04-04T05:41:16.211Z,11.60
2019-04-04T05:43:43.102Z,10.40
2019-04-04T05:46:11.124Z,10.27
2019-04-04T05:48:39.214Z,10.40
2019-04-04T05:51:07.246Z,10.60
2019-04-04T05:53:36.030Z,9.70
2019-04-04T05:56:06.409Z,10.20
2019-04-04T05:58:34.930Z,10.50
2019-04-04T06:01:03.654Z,10.40
2019-04-04T06:03:31.803Z,10.80
2019-04-04T06:06:01.336Z,10.50
2019-04-04T06:08:29.595Z,10.87
2019-04-04T06:10:57.638Z,10.17
2019-04-04T06:13:26.957Z,10.37
2019-04-04T06:15:55.470Z,11.73
2019-04-04T06:18:23.565Z,10.53
2019-04-04T06:20:51.683Z,10.70
2019-04-04T06:23:20.573Z,11.20
2019-04-04T06:25:48.892Z,11.30
2019-04-04T06:28:16.911Z,11.50
2019-04-04T06:30:44.928Z,11.00
2019-04-04T06:33:13.023Z,11.50
2019-04-04T06:35:41.071Z,11.40
2019-04-04T06:38:09.099Z,11.60
2019-04-04T06:40:37.145Z,10.40
2019-04-04T06:43:10.340Z,10.57
2019-04-04T06:45:34.980Z,11.07
2019-04-04T06:48:03.070Z,11.30
2019-04-04T06:50:31.174Z,12.07
2019-04-04T06:52:59.199Z,12.23
2019-04-04T06:55:28.772Z,11.40
2019-04-04T06:57:57.002Z,11.70
2019-04-04T07:00:25.086Z,11.20
2019-04-04T07:02:55.215Z,11.10
2019-04-04T07:05:22.858Z,10.20
2019-04-04T07:07:51.287Z,11.50
2019-04-04T07:10:21.729Z,11.13
2019-04-04T07:12:49.115Z,11.80
2019-04-04T07:15:18.793Z,11.40
2019-04-04T07:17:46.882Z,10.43
2019-04-04T07:20:21.096Z,11.20
2019-04-04T07:22:49.418Z,11.80
2019-04-04T07:25:22.925Z,11.00
2019-04-04T07:27:58.612Z,10.97
2019-04-04T07:30:29.169Z,11.43
2019-04-04T07:33:02.323Z,11.50
2019-04-04T07:38:35.026Z,11.70
2019-04-04T07:41:08.323Z,11.67
2019-04-04T07:43:39.550Z,11.50
2019-04-04T07:46:16.148Z,11.63
2019-04-04T07:48:54.651Z,11.30
2019-04-04T07:51:28.125Z,11.57
2019-04-04T07:54:07.252Z,12.17
2019-04-04T07:56:34.715Z,11.93
2019-04-04T07:59:09.441Z,12.50
2019-04-04T08:01:50.269Z,12.37
2019-04-04T08:04:07.927Z,12.23
2019-04-04T08:06:40.344Z,12.87
2019-04-04T08:09:10.234Z,12.03
2019-04-04T08:11:42.596Z,12.70
2019-04-04T08:14:08.847Z,11.70
2019-04-04T08:16:42.430Z,12.37
2019-04-04T08:19:14.203Z,12.23
2019-04-04T08:21:55.156Z,12.10
2019-04-04T08:24:24.079Z,12.63
2019-04-04T08:26:53.395Z,12.03
2019-04-04T08:29:22.277Z,13.83
2019-04-04T08:32:00.177Z,14.17
2019-04-04T08:34:39.658Z,13.67
2019-04-04T08:40:00.813Z,17.47
2019-04-04T08:42:28.602Z,16.37
2019-04-04T08:44:59.774Z,18.10
2019-04-04T08:47:33.213Z,17.37
2019-04-04T08:50:06.147Z,17.53
2019-04-04T08:52:38.410Z,17.90
2019-04-04T08:55:10.370Z,24.83
2019-04-04T08:57:41.654Z,19.10
2019-04-04T09:00:28.281Z,21.10
2019-04-04T09:02:58.875Z,24.20
2019-04-04T09:05:29.451Z,23.60
2019-04-04T09:08:09.350Z,21.93
2019-04-04T09:10:40.727Z,19.97
2019-04-04T09:13:10.267Z,18.43
2019-04-04T09:15:40.513Z,18.97
2019-04-04T09:18:28.378Z,17.33
2019-04-04T09:20:59.955Z,20.10
2019-04-04T09:23:33.467Z,19.23
2019-04-04T09:26:05.953Z,19.90
2019-04-04T09:28:35.487Z,17.67
2019-04-04T09:31:19.055Z,18.77
2019-04-04T09:33:55.621Z,22.67
2019-04-04T09:36:20.288Z,24.73
2019-04-04T09:38:56.086Z,21.97
2019-04-04T09:41:22.582Z,24.17
2019-04-04T09:43:53.682Z,25.00
2019-04-04T09:46:27.430Z,25.37
2019-04-04T09:49:01.271Z,24.00
2019-04-04T09:51:50.112Z,26.50
2019-04-04T09:54:21.183Z,27.00
2019-04-04T09:56:54.534Z,27.80
2019-04-04T09:59:22.852Z,26.03
2019-04-04T10:02:00.975Z,24.47
2019-04-04T10:04:30.887Z,22.70
2019-04-04T10:07:07.745Z,29.87
2019-04-04T10:09:37.505Z,33.10
2019-04-04T10:12:06.756Z,28.20
2019-04-04T10:14:34.855Z,23.03
2019-04-04T10:17:05.458Z,20.53
2019-04-04T10:19:33.544Z,21.93
2019-04-04T10:22:02.423Z,28.47
2019-04-04T10:24:31.211Z,20.60
2019-04-04T10:26:59.356Z,17.33
2019-04-04T10:29:27.415Z,16.27
2019-04-04T10:32:09.083Z,15.47
2019-04-04T10:34:41.278Z,15.53
2019-04-04T10:37:22.541Z,17.27
2019-04-04T10:39:59.249Z,16.60
2019-04-04T10:42:31.047Z,14.67
2019-04-04T10:45:00.997Z,12.97
2019-04-04T10:47:35.349Z,13.83
2019-04-04T10:50:10.490Z,11.97
2019-04-04T10:52:36.239Z,12.20
2019-04-04T10:57:57.470Z,10.20
2019-04-04T11:00:30.480Z,9.17
2019-04-04T11:03:09.243Z,9.30
2019-04-04T11:05:47.216Z,8.90
2019-04-04T11:08:22.959Z,8.57
2019-04-04T11:10:58.818Z,8.90
2019-04-04T11:13:33.865Z,8.83
2019-04-04T11:16:03.230Z,9.73
2019-04-04T11:18:35.708Z,8.83
2019-04-04T11:21:06.747Z,9.63
2019-04-04T11:23:37.266Z,10.23
2019-04-04T11:26:25.442Z,9.37
2019-04-04T11:28:58.284Z,9.73
2019-04-04T11:31:29.086Z,10.40
2019-04-04T11:34:04.388Z,10.20
2019-04-04T11:36:38.711Z,9.63
2019-04-04T11:39:13.476Z,10.50
2019-04-04T11:41:42.024Z,11.27
2019-04-04T11:44:14.079Z,10.80
2019-04-04T11:46:45.580Z,10.93
2019-04-04T11:49:24.641Z,10.87
2019-04-04T11:51:49.968Z,12.47
2019-04-04T11:54:22.226Z,12.87
2019-04-04T11:56:53.277Z,12.73
2019-04-04T11:59:22.629Z,13.80
2019-04-04T12:01:52.768Z,13.47
2019-04-04T12:04:20.782Z,13.00
2019-04-04T12:06:48.798Z,12.27
2019-04-04T12:09:16.831Z,12.00
2019-04-04T12:11:44.927Z,11.83
2019-04-04T12:14:12.942Z,12.37
2019-04-04T12:16:40.980Z,13.17
2019-04-04T12:19:09.139Z,12.20
2019-04-04T12:21:37.182Z,11.00
2019-04-04T12:24:05.210Z,12.00
2019-04-04T12:26:33.226Z,11.27
2019-04-04T12:29:01.243Z,10.10
2019-04-04T12:31:29.277Z,9.73
2019-04-04T12:33:57.290Z,9.73
2019-04-04T12:36:25.306Z,9.27
2019-04-04T12:38:53.358Z,8.63
2019-04-04T12:41:21.827Z,8.83
2019-04-04T12:43:49.882Z,7.97
2019-04-04T12:46:17.915Z,7.73
2019-04-04T12:48:45.937Z,8.53
2019-04-04T12:51:13.946Z,8.50
2019-04-04T12:53:41.978Z,8.80
2019-04-04T12:56:09.993Z,8.23
2019-04-04T12:58:37.999Z,8.10
2019-04-04T13:01:06.030Z,7.93
2019-04-04T13:03:34.045Z,7.87
2019-04-04T13:06:02.059Z,7.87
2019-04-04T13:08:30.725Z,8.13
2019-04-04T13:10:59.174Z,6.90
2019-04-04T13:13:27.491Z,5.83
2019-04-04T13:16:14.991Z,6.27
2019-04-04T13:18:43.006Z,5.30
2019-04-04T13:21:11.095Z,3.80
2019-04-04T13:23:39.156Z,3.90
2019-04-04T13:26:07.218Z,2.80
2019-04-04T13:28:35.227Z,3.13
2019-04-04T13:31:03.254Z,3.27
2019-04-04T13:33:31.363Z,2.93
2019-04-04T13:35:59.442Z,3.30
2019-04-04T13:38:27.483Z,2.90
2019-04-04T13:40:55.487Z,3.20
2019-04-04T13:43:23.502Z,2.90
2019-04-04T13:45:51.538Z,2.47
2019-04-04T13:48:19.639Z,2.37
2019-04-04T13:50:47.650Z,3.20
2019-04-04T13:53:15.675Z,2.70
2019-04-04T13:55:43.693Z,2.77
2019-04-04T13:58:11.699Z,3.23
2019-04-04T14:00:40.015Z,2.43
2019-04-04T14:03:08.120Z,1.77
2019-04-04T14:05:36.130Z,2.10
2019-04-04T14:08:04.234Z,2.33
2019-04-04T14:10:32.238Z,2.90
2019-04-04T14:13:00.252Z,3.67
2019-04-04T14:15:28.287Z,4.57
2019-04-04T14:17:56.290Z,3.90
2019-04-04T14:20:24.303Z,2.87
2019-04-04T14:22:52.342Z,3.20
2019-04-04T14:25:20.351Z,3.30
2019-04-04T14:27:48.446Z,2.93
2019-04-04T14:30:16.474Z,3.00
2019-04-04T14:32:44.479Z,3.27
2019-04-04T14:35:12.590Z,4.60
2019-04-04T14:37:40.620Z,4.30
2019-04-04T14:40:08.638Z,4.37
2019-04-04T14:42:36.648Z,4.77
2019-04-04T14:45:06.576Z,5.07
2019-04-04T14:47:34.902Z,4.60
2019-04-04T14:50:04.822Z,4.80
2019-04-04T14:52:33.083Z,4.10
2019-04-04T14:55:01.094Z,4.63
2019-04-04T14:57:29.102Z,4.10
2019-04-04T14:59:57.131Z,4.33
2019-04-04T15:02:25.141Z,4.87
2019-04-04T15:04:53.147Z,4.47
2019-04-04T15:07:21.171Z,3.87
2019-04-04T15:09:49.246Z,4.87
2019-04-04T15:12:17.278Z,4.53
2019-04-04T15:14:45.295Z,4.73
2019-04-04T15:17:13.307Z,4.83
2019-04-04T15:19:41.390Z,4.37
2019-04-04T15:22:09.437Z,5.50
2019-04-04T15:24:37.443Z,4.37
2019-04-04T15:27:05.451Z,4.33
2019-04-04T15:29:33.479Z,4.43
2019-04-04T15:32:01.568Z,4.60
2019-04-04T15:34:29.671Z,4.13
2019-04-04T15:36:57.712Z,4.00
2019-04-04T15:39:25.841Z,4.37
2019-04-04T15:41:53.850Z,4.10
2019-04-04T15:44:21.874Z,4.60
2019-04-04T15:46:49.910Z,4.63
2019-04-04T15:49:17.928Z,4.30
2019-04-04T15:51:45.988Z,4.43
2019-04-04T15:54:14.070Z,4.30
2019-04-04T15:56:42.092Z,4.37
2019-04-04T15:59:10.126Z,4.50
2019-04-04T16:01:38.139Z,4.50
2019-04-04T16:04:06.151Z,4.60
2019-04-04T16:06:34.180Z,4.80
2019-04-04T16:09:02.467Z,4.97
2019-04-04T16:11:30.563Z,4.90
2019-04-04T16:13:58.583Z,4.80
2019-04-04T16:16:26.595Z,5.30
2019-04-04T16:18:54.611Z,4.30
2019-04-04T16:21:22.644Z,4.50
2019-04-04T16:23:50.655Z,4.57
2019-04-04T16:26:18.663Z,4.50
2019-04-04T16:28:46.688Z,4.30
2019-04-04T16:31:14.704Z,4.40
2019-04-04T16:33:43.408Z,4.97
2019-04-04T16:36:11.443Z,4.20
2019-04-04T16:38:39.459Z,4.10
2019-04-04T16:41:07.466Z,4.90
2019-04-04T16:43:35.536Z,4.80
2019-04-04T16:46:03.620Z,4.47
2019-04-04T16:48:31.624Z,4.57
2019-04-04T16:50:59.653Z,4.93
2019-04-04T16:53:29.883Z,4.83
2019-04-04T16:55:57.499Z,4.30
2019-04-04T16:58:25.595Z,4.57
2019-04-04T17:00:53.598Z,4.47
2019-04-04T17:03:21.603Z,4.93
2019-04-04T17:05:49.642Z,4.37
2019-04-04T17:08:17.784Z,4.23
2019-04-04T17:10:45.870Z,4.60
2019-04-04T17:13:13.899Z,4.30
2019-04-04T17:15:41.907Z,4.40
2019-04-04T17:18:09.914Z,4.50
2019-04-04T17:20:37.949Z,4.37
2019-04-04T17:23:06.052Z,4.80
2019-04-04T17:25:34.055Z,4.60
2019-04-04T17:28:02.352Z,4.57
2019-04-04T17:30:30.605Z,4.63
2019-04-04T17:32:58.960Z,5.10
2019-04-04T17:35:27.110Z,5.10
2019-04-04T17:37:55.117Z,4.97
2019-04-04T17:40:23.183Z,4.80
2019-04-04T17:42:51.241Z,4.83
2019-04-04T17:45:19.618Z,4.53
2019-04-04T17:47:47.761Z,4.70
2019-04-04T17:50:19.150Z,4.87
2019-04-04T17:52:45.909Z,4.40
2019-04-04T17:55:14.103Z,4.83
2019-04-04T17:57:42.135Z,4.47
2019-04-04T18:00:10.314Z,4.80
2019-04-04T18:02:38.326Z,4.47
2019-04-04T18:05:07.999Z,4.53
2019-04-04T18:07:36.091Z,4.60
2019-04-04T18:10:05.170Z,4.40
2019-04-04T18:12:40.171Z,4.57
2019-04-04T18:15:03.198Z,4.80
2019-04-04T18:17:31.224Z,4.70
2019-04-04T18:19:59.334Z,4.03
2019-04-04T18:22:27.338Z,3.77
2019-04-04T18:24:55.353Z,4.20
2019-04-04T18:27:23.378Z,4.10
2019-04-04T18:29:51.394Z,3.90
2019-04-04T18:32:19.401Z,4.23
2019-04-04T18:34:47.539Z,4.67
2019-04-04T18:37:15.626Z,4.30
2019-04-04T18:39:43.639Z,3.67
2019-04-04T18:42:11.671Z,4.07
2019-04-04T18:44:39.679Z,4.72
2019-04-04T18:47:07.771Z,4.83
2019-04-04T18:49:35.816Z,5.62
2019-04-04T18:52:03.829Z,5.93
2019-04-04T18:54:31.839Z,5.40
2019-04-04T18:56:59.860Z,5.63
2019-04-04T18:59:27.875Z,5.73
2019-04-04T19:01:55.879Z,5.40
2019-04-04T19:04:23.920Z,5.47
2019-04-04T19:06:51.922Z,6.23
2019-04-04T19:09:19.943Z,6.70
2019-04-04T19:11:47.973Z,6.33
2019-04-04T19:14:16.307Z,6.60
2019-04-04T19:16:44.582Z,7.37
2019-04-04T19:19:12.615Z,7.10
2019-04-04T19:21:40.630Z,7.37
2019-04-04T19:24:08.646Z,7.97
2019-04-04T19:26:38.029Z,7.50
2019-04-04T19:29:06.054Z,8.23
2019-04-04T19:31:34.062Z,8.00
2019-04-04T19:34:02.099Z,8.40
2019-04-04T19:36:30.109Z,8.03
2019-04-04T19:38:58.129Z,8.53
2019-04-04T19:41:26.150Z,8.77
2019-04-04T19:43:54.247Z,9.13
2019-04-04T19:46:22.259Z,7.97
2019-04-04T19:48:50.291Z,8.73
2019-04-04T19:51:18.302Z,9.40
2019-04-04T19:53:46.321Z,9.57
2019-04-04T19:56:14.434Z,9.77
2019-04-04T19:58:42.448Z,9.37
2019-04-04T20:01:10.530Z,10.67
2019-04-04T20:03:38.566Z,11.00
2019-04-04T20:06:06.591Z,10.57
2019-04-04T20:08:34.607Z,10.77
2019-04-04T20:11:02.763Z,10.57
2019-04-04T20:13:31.502Z,11.00
2019-04-04T20:15:59.720Z,11.77
2019-04-04T20:18:27.763Z,11.37
2019-04-04T20:20:55.774Z,12.70
2019-04-04T20:23:23.791Z,13.10
2019-04-04T20:25:51.850Z,13.37
2019-04-04T20:28:20.294Z,13.50
2019-04-04T20:30:48.316Z,13.90
2019-04-04T20:33:16.351Z,15.00
2019-04-04T20:35:44.362Z,14.80
2019-04-04T20:38:12.459Z,15.63
2019-04-04T20:40:40.495Z,15.50
2019-04-04T20:43:08.510Z,15.70
2019-04-04T20:45:36.526Z,16.97
2019-04-04T20:48:04.555Z,17.07
2019-04-04T20:50:32.574Z,18.03
2019-04-04T20:53:00.590Z,19.13
2019-04-04T20:55:28.641Z,18.20
2019-04-04T20:57:56.654Z,20.10
2019-04-04T21:00:24.670Z,20.50
2019-04-04T21:02:52.702Z,22.43
2019-04-04T21:05:20.720Z,22.53
2019-04-04T21:07:48.730Z,23.00
2019-04-04T21:10:16.765Z,24.23
2019-04-04T21:12:44.878Z,25.20
2019-04-04T21:15:12.894Z,25.33
2019-04-04T21:17:40.922Z,26.83
2019-04-04T21:20:09.010Z,27.00
2019-04-04T21:22:37.033Z,26.20
2019-04-04T21:25:05.134Z,28.17
2019-04-04T21:27:33.160Z,27.83
2019-04-04T21:30:01.175Z,27.70
2019-04-04T21:32:29.403Z,28.73
2019-04-04T21:34:57.433Z,29.13
2019-04-04T21:37:25.451Z,28.97
2019-04-04T21:39:53.488Z,28.77
2019-04-04T21:42:21.504Z,30.20
2019-04-04T21:44:49.506Z,36.15
2019-04-04T21:47:17.565Z,32.70
2019-04-04T21:49:45.727Z,32.07
2019-04-04T21:52:13.740Z,31.53
2019-04-04T21:54:41.839Z,31.33
2019-04-04T21:57:09.851Z,30.70
2019-04-04T21:59:37.867Z,30.77
2019-04-04T22:02:06.693Z,33.33
2019-04-04T22:04:35.131Z,33.37
2019-04-04T22:07:03.199Z,31.00
2019-04-04T22:09:33.620Z,33.73
2019-04-04T22:12:01.263Z,32.63
2019-04-04T22:14:29.299Z,33.50
2019-04-04T22:16:57.471Z,34.07
2019-04-04T22:19:25.512Z,33.83
2019-04-04T22:21:53.554Z,33.70
2019-04-04T22:24:22.443Z,33.30
2019-04-04T22:26:50.647Z,34.93
2019-04-04T22:29:18.691Z,33.20
2019-04-04T22:31:47.141Z,34.37
2019-04-04T22:34:16.161Z,36.53
2019-04-04T22:36:44.195Z,34.07
2019-04-04T22:39:12.256Z,33.93
2019-04-04T22:41:40.307Z,34.73
2019-04-04T22:44:08.415Z,34.03
2019-04-04T22:46:36.472Z,35.37
2019-04-04T22:49:04.589Z,35.63
2019-04-04T22:51:32.706Z,37.80
2019-04-04T22:54:00.764Z,35.20
2019-04-04T22:56:28.878Z,34.20
2019-04-04T22:58:57.023Z,35.03
2019-04-04T23:01:25.080Z,34.87
2019-04-04T23:03:53.120Z,34.30
2019-04-04T23:06:21.166Z,35.40
2019-04-04T23:08:49.232Z,35.10
2019-04-04T23:11:17.282Z,35.50
2019-04-04T23:13:45.756Z,33.77
2019-04-04T23:16:13.916Z,35.47
2019-04-04T23:18:41.950Z,35.50
2019-04-04T23:21:09.992Z,34.07
2019-04-04T23:23:38.125Z,35.03
2019-04-04T23:26:06.219Z,34.27
2019-04-04T23:28:34.265Z,32.60
2019-04-04T23:31:02.439Z,34.67
2019-04-04T23:33:30.482Z,32.67
2019-04-04T23:35:58.519Z,34.20
2019-04-04T23:38:26.573Z,34.67
2019-04-04T23:40:54.616Z,34.60
2019-04-04T23:43:22.651Z,33.87
2019-04-04T23:45:50.718Z,33.60
2019-04-04T23:48:18.827Z,34.50
2019-04-04T23:50:46.867Z,33.83
2019-04-04T23:53:14.935Z,33.17
2019-04-04T23:55:42.976Z,33.03
2019-04-04T23:58:11.017Z,34.37
